International Virtual Aviation Organisation

Russian Federation and Kazakhstan MCD

 

Карточка аэропорта UACC

Внимание!
Информация на этой странице в стадии наполнения.
Если вы не увидели какой-то информации, или заметили неточность - пожалуйста сообщите нам!
Спасибо!
Команда RU-STAFF
Название аэропортаНур-Султан
Название аэропорта (англ.)Nur-Sultan
Превышение1165 ft. (355.1 m.)
Координаты51°1.3319999999999', 71°28.014'
Высота перехода10000
Эшелон переходаby ATC
Коды ответчика0601-0627, 7201-7217
Зона ОрВДНур-Султан РПИ (UACN)
Данные METARUACC 302100Z 23002MPS 5000 BR FU NSC M04/M05 Q1033 R22/0///70 TEMPO 0300 FZFG VV002 RMK QFE743/0991
Проноз погоды (TAF)UACC 301707Z 3018/3118 24003MPS 3100 BR FEW003 BKN011 TX06/3109Z TNM05/3101Z TEMPO 3018/3021 VRB02MPS 0300 FZFG VV002 FM302100 24003MPS 1000 BR BKN003 BKN011 TEMPO 3021/3104 VRB02MPS 0200 FZFG VV002 BECMG 3104/3106 9999 NSW FEW011 SCT030
NOTAMshow/hide NOTAM
AWOS   TABLE

Информация о ВПП

ВПП Длина ВПП (м.) Покрытие Курс ВПП Частота ILS
043500Асфальтобетон35109.5
223500Асфальтобетон215111.7

Диспетчерские позиции

Позывной Наименование органа УВД Частота
UACC_APPНур-Султан Подход124.6
UACC_R_APPНур-Султан Круг120.7
UACC_TWRНур-Султан Вышка118.7
UACC_GNDНур-Султан Руление119.6



Спутниковое изображение